createdAt,value
2017-12-02T00:00:55.156Z,97563.85
2017-12-02T00:03:22.673Z,97559.25
2017-12-02T00:05:50.199Z,97561.81
2017-12-02T00:08:17.787Z,97561.41
2017-12-02T00:10:45.317Z,97563.00
2017-12-02T00:13:12.823Z,97568.48
2017-12-02T00:15:40.621Z,97564.73
2017-12-02T00:18:08.176Z,97563.88
2017-12-02T00:20:35.696Z,97566.86
2017-12-02T00:23:03.270Z,97576.17
2017-12-02T00:25:30.795Z,97577.08
2017-12-02T00:27:58.330Z,97579.13
2017-12-02T00:30:25.903Z,97581.62
2017-12-02T00:32:53.449Z,97583.75
2017-12-02T00:35:21.009Z,97575.45
2017-12-02T00:37:48.567Z,97591.70
2017-12-02T00:40:16.082Z,97595.05
2017-12-02T00:42:43.607Z,97594.65
2017-12-02T00:45:11.294Z,97593.83
2017-12-02T00:47:38.814Z,97596.34
2017-12-02T00:50:06.363Z,97597.14
2017-12-02T00:52:33.924Z,97598.83
2017-12-02T00:55:01.480Z,97602.59
2017-12-02T00:57:29.003Z,97598.38
2017-12-02T00:59:56.908Z,97598.40
2017-12-02T01:02:24.466Z,97600.03
2017-12-02T01:04:52.078Z,97605.02
2017-12-02T01:07:19.636Z,97605.45
2017-12-02T01:09:47.154Z,97609.20
2017-12-02T01:12:14.703Z,97611.71
2017-12-02T01:14:42.287Z,97607.52
2017-12-02T01:17:09.798Z,97610.47
2017-12-02T01:19:37.323Z,97608.76
2017-12-02T01:22:04.942Z,97617.53
2017-12-02T01:24:32.498Z,97617.09
2017-12-02T01:27:00.058Z,97621.69
2017-12-02T01:29:27.718Z,97627.53
2017-12-02T01:31:55.231Z,97635.47
2017-12-02T01:34:22.763Z,97638.80
2017-12-02T01:36:50.478Z,97641.33
2017-12-02T01:39:18.366Z,97637.53
2017-12-02T01:41:45.906Z,97636.31
2017-12-02T01:44:13.586Z,97643.84
2017-12-02T01:46:41.100Z,97645.49
2017-12-02T01:49:08.618Z,97649.65
2017-12-02T01:51:36.468Z,97655.08
2017-12-02T01:54:03.983Z,97651.30
2017-12-02T01:56:31.505Z,97659.23
2017-12-02T01:58:59.081Z,97663.82
2017-12-02T02:01:26.603Z,97665.06
2017-12-02T02:03:54.160Z,97668.42
2017-12-02T02:06:21.851Z,97665.91
2017-12-02T02:08:49.370Z,97665.50
2017-12-02T02:11:16.894Z,97666.77
2017-12-02T02:13:44.603Z,97659.25
2017-12-02T02:16:12.162Z,97655.08
2017-12-02T02:18:39.675Z,97659.66
2017-12-02T02:21:07.484Z,97662.59
2017-12-02T02:23:35.044Z,97667.17
2017-12-02T02:26:02.605Z,97669.67
2017-12-02T02:28:30.351Z,97668.82
2017-12-02T02:30:57.876Z,97669.24
2017-12-02T02:33:25.406Z,97674.67
2017-12-02T02:35:52.961Z,97679.25
2017-12-02T02:38:20.483Z,97682.59
2017-12-02T02:40:48.010Z,97683.81
2017-12-02T02:43:15.730Z,97684.17
2017-12-02T02:45:43.254Z,97685.44
2017-12-02T02:48:10.778Z,97688.79
2017-12-02T02:50:38.327Z,97691.31
2017-12-02T02:53:05.850Z,97693.37
2017-12-02T02:55:33.370Z,97694.59
2017-12-02T02:58:00.976Z,97693.39
2017-12-02T03:00:28.534Z,97696.66
2017-12-02T03:02:56.195Z,97700.83
2017-12-02T03:05:23.804Z,97697.45
2017-12-02T03:07:51.331Z,97708.70
2017-12-02T03:10:18.874Z,97709.55
2017-12-02T03:12:46.682Z,97715.72
2017-12-02T03:15:14.199Z,97714.42
2017-12-02T03:17:41.758Z,97718.25
2017-12-02T03:20:09.704Z,97716.54
2017-12-02T03:22:37.283Z,97722.39
2017-12-02T03:25:04.843Z,97716.96
2017-12-02T03:27:32.790Z,97720.37
2017-12-02T03:30:00.307Z,97722.09
2017-12-02T03:32:27.822Z,97718.75
2017-12-02T03:34:55.790Z,97723.75
2017-12-02T03:37:23.356Z,97716.22
2017-12-02T03:39:50.914Z,97715.39
2017-12-02T03:42:18.554Z,97709.98
2017-12-02T03:44:46.133Z,97709.15
2017-12-02T03:47:13.799Z,97728.27
2017-12-02T03:49:41.661Z,97726.16
2017-12-02T03:52:09.259Z,97734.50
2017-12-02T03:54:36.803Z,97726.59
2017-12-02T03:57:04.606Z,97726.18
2017-12-02T03:59:32.205Z,97721.17
2017-12-02T04:01:59.717Z,97725.33
2017-12-02T04:04:27.631Z,97729.03
2017-12-02T04:06:55.195Z,97725.27
2017-12-02T04:09:22.750Z,97733.99
2017-12-02T04:11:50.513Z,97733.89
2017-12-02T04:14:18.071Z,97732.62
2017-12-02T04:16:45.590Z,97731.34
2017-12-02T04:19:13.191Z,97729.59
2017-12-02T04:21:40.749Z,97734.52
2017-12-02T04:24:08.274Z,97724.89
2017-12-02T04:26:35.868Z,97727.28
2017-12-02T04:29:03.385Z,97735.64
2017-12-02T04:31:30.903Z,97732.59
2017-12-02T04:33:58.500Z,97731.63
2017-12-02T04:36:26.027Z,97738.80
2017-12-02T04:38:53.560Z,97733.34
2017-12-02T04:41:21.298Z,97746.56
2017-12-02T04:43:49.292Z,97743.09
2017-12-02T04:46:16.807Z,97750.69
2017-12-02T04:48:44.355Z,97747.81
2017-12-02T04:51:11.866Z,97749.55
2017-12-02T04:53:39.374Z,97748.38
2017-12-02T04:56:06.922Z,97753.88
2017-12-02T04:58:34.443Z,97756.86
2017-12-02T05:01:02.330Z,97763.14
2017-12-02T05:03:29.896Z,97760.70
2017-12-02T05:05:57.419Z,97771.93
2017-12-02T05:08:24.990Z,97778.62
2017-12-02T05:10:52.546Z,97793.98
2017-12-02T05:13:20.106Z,97792.26
2017-12-02T05:15:48.074Z,97805.63
2017-12-02T05:18:15.818Z,97805.69
2017-12-02T05:20:43.342Z,97813.48
2017-12-02T05:23:10.869Z,97821.53
2017-12-02T05:25:38.618Z,97816.70
2017-12-02T05:28:06.136Z,97817.64
2017-12-02T05:30:33.736Z,97816.52
2017-12-02T05:33:01.601Z,97819.83
2017-12-02T05:35:29.161Z,97826.09
2017-12-02T05:37:56.720Z,97827.48
2017-12-02T05:40:24.291Z,97834.59
2017-12-02T05:42:51.814Z,97839.13
2017-12-02T05:45:19.334Z,97838.44
2017-12-02T05:47:46.905Z,97842.20
2017-12-02T05:50:14.422Z,97851.84
2017-12-02T05:52:41.980Z,97852.93
2017-12-02T05:55:09.556Z,97844.03
2017-12-02T05:57:37.078Z,97847.86
2017-12-02T06:00:04.677Z,97851.97
2017-12-02T06:02:32.229Z,97860.36
2017-12-02T06:04:59.768Z,97856.19
2017-12-02T06:07:27.326Z,97859.64
2017-12-02T06:09:55.070Z,97866.73
2017-12-02T06:12:22.599Z,97872.50
2017-12-02T06:14:50.986Z,97873.55
2017-12-02T06:17:18.705Z,97874.47
2017-12-02T06:19:46.249Z,97883.30
2017-12-02T06:22:13.770Z,97886.61
2017-12-02T06:24:41.319Z,97883.60
2017-12-02T06:27:08.852Z,97886.22
2017-12-02T06:29:36.373Z,97893.91
2017-12-02T06:32:04.146Z,97890.87
2017-12-02T06:34:31.666Z,97884.91
2017-12-02T06:36:59.199Z,97885.28
2017-12-02T06:39:27.050Z,97884.16
2017-12-02T06:41:54.571Z,97893.29
2017-12-02T06:44:22.197Z,97895.88
2017-12-02T06:46:49.777Z,97892.36
2017-12-02T06:49:17.294Z,97887.63
2017-12-02T06:51:44.826Z,97895.02
2017-12-02T06:54:12.521Z,97889.45
2017-12-02T06:56:40.037Z,97893.33
2017-12-02T06:59:07.550Z,97893.61
2017-12-02T07:01:35.097Z,97892.70
2017-12-02T07:04:02.621Z,97901.58
2017-12-02T07:06:30.142Z,97904.55
2017-12-02T07:08:58.027Z,97902.55
2017-12-02T07:11:25.559Z,97904.37
2017-12-02T07:13:53.086Z,97896.50
2017-12-02T07:16:20.742Z,97900.16
2017-12-02T07:18:48.326Z,97899.53
2017-12-02T07:21:15.840Z,97898.63
2017-12-02T07:23:43.426Z,97900.31
2017-12-02T07:26:10.942Z,97910.80
2017-12-02T07:28:38.466Z,97910.53
2017-12-02T07:31:06.113Z,97914.61
2017-12-02T07:33:33.621Z,97918.06
2017-12-02T07:36:01.147Z,97916.02
2017-12-02T07:38:28.783Z,97920.89
2017-12-02T07:40:56.300Z,97916.48
2017-12-02T07:43:23.815Z,97919.63
2017-12-02T07:45:51.519Z,97923.61
2017-12-02T07:48:19.046Z,97921.91
2017-12-02T07:50:46.566Z,97923.23
2017-12-02T07:53:14.716Z,97921.48
2017-12-02T07:55:42.252Z,97927.31
2017-12-02T07:58:10.763Z,97927.64
2017-12-02T08:00:38.428Z,97934.63
2017-12-02T08:03:05.942Z,97932.02
2017-12-02T08:05:33.500Z,97927.37
2017-12-02T08:08:01.194Z,97924.14
2017-12-02T08:10:28.718Z,97929.82
2017-12-02T08:12:56.233Z,97932.36
2017-12-02T08:15:23.938Z,97931.55
2017-12-02T08:17:51.465Z,97930.77
2017-12-02T08:20:19.002Z,97931.70
2017-12-02T08:22:46.578Z,97925.02
2017-12-02T08:25:14.150Z,97927.32
2017-12-02T08:27:41.661Z,97937.06
2017-12-02T08:30:09.554Z,97933.20
2017-12-02T08:32:37.102Z,97931.73
2017-12-02T08:35:04.688Z,97936.08
2017-12-02T08:37:32.301Z,97938.16
2017-12-02T08:39:59.882Z,97948.78
2017-12-02T08:42:27.402Z,97943.02
2017-12-02T08:44:55.309Z,97948.49
2017-12-02T08:47:22.830Z,97955.66
2017-12-02T08:49:50.355Z,97957.41
2017-12-02T08:52:17.903Z,97964.04
2017-12-02T08:54:45.475Z,97973.92
2017-12-02T08:57:13.101Z,97969.06
2017-12-02T08:59:40.732Z,97974.99
2017-12-02T09:02:08.423Z,97975.39
2017-12-02T09:04:36.067Z,97981.28
2017-12-02T09:07:03.965Z,97990.02
2017-12-02T09:09:31.570Z,97994.25
2017-12-02T09:11:59.108Z,97994.65
2017-12-02T09:14:26.939Z,98003.00
2017-12-02T09:16:54.619Z,97995.11
2017-12-02T09:19:22.364Z,98004.66
2017-12-02T09:21:50.331Z,97998.43
2017-12-02T09:24:17.905Z,97998.31
2017-12-02T09:26:45.449Z,98000.86
2017-12-02T09:29:13.018Z,97995.52
2017-12-02T09:31:40.773Z,97992.56
2017-12-02T09:34:08.327Z,97993.45
2017-12-02T09:36:35.894Z,98003.91
2017-12-02T09:39:03.468Z,97999.34
2017-12-02T09:41:31.015Z,98008.48
2017-12-02T09:43:58.899Z,98012.29
2017-12-02T09:46:26.765Z,98013.57
2017-12-02T09:48:54.350Z,98010.47
2017-12-02T09:51:22.290Z,98012.16
2017-12-02T09:53:49.828Z,98013.56
2017-12-02T09:56:17.381Z,98006.71
2017-12-02T09:58:44.991Z,98010.42
2017-12-02T10:01:12.712Z,98005.88
2017-12-02T10:03:40.496Z,98003.41
2017-12-02T10:06:08.359Z,98001.68
2017-12-02T10:08:35.894Z,98010.86
2017-12-02T10:11:03.481Z,98003.45
2017-12-02T10:13:31.082Z,98006.44
2017-12-02T10:15:58.598Z,98006.05
2017-12-02T10:18:26.154Z,98007.67
2017-12-02T10:20:53.727Z,98008.48
2017-12-02T10:23:21.362Z,98004.32
2017-12-02T10:25:48.915Z,98005.14
2017-12-02T10:28:16.662Z,98005.20
2017-12-02T10:30:44.198Z,97998.88
2017-12-02T10:33:11.902Z,97989.72
2017-12-02T10:35:39.786Z,97994.73
2017-12-02T10:38:07.637Z,97995.98
2017-12-02T10:40:35.241Z,97989.31
2017-12-02T10:43:03.133Z,97988.52
2017-12-02T10:45:30.866Z,97988.07
2017-12-02T10:47:58.736Z,97985.16
2017-12-02T10:50:26.898Z,97978.49
2017-12-02T10:52:55.624Z,97977.22
2017-12-02T10:55:23.517Z,97971.81
2017-12-02T10:57:51.997Z,97970.97
2017-12-02T11:00:19.994Z,97977.22
2017-12-02T11:02:47.882Z,97975.98
2017-12-02T11:05:16.006Z,97971.38
2017-12-02T11:07:43.623Z,97971.81
2017-12-02T11:10:11.204Z,97967.60
2017-12-02T11:12:39.292Z,97971.79
2017-12-02T11:15:06.857Z,97965.53
2017-12-02T11:17:34.638Z,97977.64
2017-12-02T11:20:03.518Z,97973.02
2017-12-02T11:22:31.135Z,97967.59
2017-12-02T11:24:58.753Z,97967.62
2017-12-02T11:27:26.495Z,97975.13
2017-12-02T11:29:54.055Z,97973.45
2017-12-02T11:32:21.573Z,97976.75
2017-12-02T11:34:49.489Z,97978.46
2017-12-02T11:37:17.043Z,97970.93
2017-12-02T11:39:44.604Z,97974.25
2017-12-02T11:42:12.350Z,97972.59
2017-12-02T11:44:39.871Z,97977.63
2017-12-02T11:47:07.583Z,97977.22
2017-12-02T11:49:35.141Z,97976.80
2017-12-02T11:52:02.704Z,97979.72
2017-12-02T11:54:30.260Z,97974.70
2017-12-02T11:56:57.954Z,97970.97
2017-12-02T11:59:25.481Z,97972.21
2017-12-02T12:01:53.039Z,97972.58
2017-12-02T12:04:20.804Z,97976.78
2017-12-02T12:06:48.365Z,97974.70
2017-12-02T12:09:15.925Z,97968.41
2017-12-02T12:11:43.622Z,97965.08
2017-12-02T12:14:11.190Z,97965.52
2017-12-02T12:16:38.713Z,97960.08
2017-12-02T12:19:06.294Z,97950.40
2017-12-02T12:21:34.082Z,97955.39
2017-12-02T12:24:01.688Z,97953.31
2017-12-02T12:26:29.348Z,97954.16
2017-12-02T12:28:56.866Z,97950.06
2017-12-02T12:31:24.741Z,97955.02
2017-12-02T12:33:52.333Z,97956.70
2017-12-02T12:36:19.860Z,97954.17
2017-12-02T12:38:47.378Z,97955.36
2017-12-02T12:41:15.094Z,97953.31
2017-12-02T12:43:42.614Z,97952.47
2017-12-02T12:46:10.128Z,97955.31
2017-12-02T12:48:37.993Z,97955.73
2017-12-02T12:51:05.552Z,97953.66
2017-12-02T12:53:33.116Z,97960.82
2017-12-02T12:56:00.866Z,97958.75
2017-12-02T12:58:28.378Z,97972.58
2017-12-02T13:00:56.108Z,97971.75
2017-12-02T13:03:23.838Z,97965.11
2017-12-02T13:05:51.357Z,97966.75
2017-12-02T13:08:18.926Z,97968.42
2017-12-02T13:10:46.539Z,97971.75
2017-12-02T13:13:14.097Z,97974.71
2017-12-02T13:15:41.622Z,97971.77
2017-12-02T13:18:09.214Z,97977.20
2017-12-02T13:20:36.978Z,97976.78
2017-12-02T13:23:04.510Z,97983.44
2017-12-02T13:25:32.609Z,97977.61
2017-12-02T13:28:00.157Z,97978.02
2017-12-02T13:30:27.674Z,97971.76
2017-12-02T13:32:55.225Z,97975.08
2017-12-02T13:35:23.050Z,97969.64
2017-12-02T13:37:50.574Z,97972.61
2017-12-02T13:40:18.460Z,97971.73
2017-12-02T13:42:46.118Z,97970.94
2017-12-02T13:45:13.692Z,97967.19
2017-12-02T13:47:41.386Z,97967.17
2017-12-02T13:50:08.920Z,97966.73
2017-12-02T13:52:36.884Z,97970.52
2017-12-02T13:55:04.547Z,97978.47
2017-12-02T13:57:32.160Z,97977.59
2017-12-02T13:59:59.662Z,97979.30
2017-12-02T14:02:27.474Z,97976.41
2017-12-02T14:04:55.036Z,97968.86
2017-12-02T14:07:22.550Z,97976.81
2017-12-02T14:09:50.244Z,97982.63
2017-12-02T14:12:18.687Z,97983.89
2017-12-02T14:14:46.245Z,97983.46
2017-12-02T14:17:14.985Z,97985.98
2017-12-02T14:19:43.825Z,97985.12
2017-12-02T14:22:11.382Z,97986.81
2017-12-02T14:24:39.759Z,97987.22
2017-12-02T14:27:07.311Z,97990.56
2017-12-02T14:29:34.979Z,97990.15
2017-12-02T14:32:03.579Z,97996.86
2017-12-02T14:34:31.123Z,98002.30
2017-12-02T14:36:58.783Z,97998.95
2017-12-02T14:39:26.447Z,98003.14
2017-12-02T14:41:54.955Z,98002.72
2017-12-02T14:44:22.466Z,98004.80
2017-12-02T14:46:50.232Z,98007.72
2017-12-02T14:49:17.759Z,98011.42
2017-12-02T14:51:45.984Z,98006.05
2017-12-02T14:54:14.089Z,98005.20
2017-12-02T14:56:42.252Z,97993.50
2017-12-02T14:59:09.817Z,98001.00
2017-12-02T15:01:37.715Z,98003.11
2017-12-02T15:04:05.345Z,98015.62
2017-12-02T15:06:32.871Z,98010.63
2017-12-02T15:09:01.590Z,98007.69
2017-12-02T15:11:29.129Z,98011.03
2017-12-02T15:13:56.982Z,98011.03
2017-12-02T15:16:25.694Z,98018.11
2017-12-02T15:18:53.534Z,98017.27
2017-12-02T15:21:21.299Z,98027.71
2017-12-02T15:23:49.369Z,98029.34
2017-12-02T15:26:17.030Z,98027.70
2017-12-02T15:28:45.726Z,98031.03
2017-12-02T15:31:13.971Z,98033.94
2017-12-02T15:33:41.801Z,98041.02
2017-12-02T15:36:11.894Z,98031.41
2017-12-02T15:38:41.203Z,98040.15
2017-12-02T15:41:09.249Z,98043.09
2017-12-02T15:43:37.981Z,98048.08
2017-12-02T15:46:07.454Z,98042.19
2017-12-02T15:48:36.022Z,98049.78
2017-12-02T15:51:04.603Z,98051.43
2017-12-02T15:53:32.572Z,98045.61
2017-12-02T15:56:00.337Z,98056.06
2017-12-02T15:58:28.099Z,98057.73
2017-12-02T16:00:58.033Z,98053.52
2017-12-02T16:03:25.858Z,98053.89
2017-12-02T16:05:53.562Z,98052.17
2017-12-02T16:08:21.236Z,98054.77
2017-12-02T16:10:48.971Z,98055.98
2017-12-02T16:13:17.461Z,98060.86
2017-12-02T16:15:45.018Z,98055.48
2017-12-02T16:18:12.615Z,98063.30
2017-12-02T16:20:40.162Z,98058.77
2017-12-02T16:23:07.742Z,98062.64
2017-12-02T16:25:35.347Z,98052.26
2017-12-02T16:28:03.009Z,98052.56
2017-12-02T16:30:30.976Z,98056.73
2017-12-02T16:32:58.486Z,98053.84
2017-12-02T16:35:26.015Z,98047.63
2017-12-02T16:37:53.565Z,98046.38
2017-12-02T16:40:21.112Z,98047.22
2017-12-02T16:42:48.669Z,98064.33
2017-12-02T16:45:16.238Z,98060.97
2017-12-02T16:47:43.782Z,98068.88
2017-12-02T16:50:11.398Z,98065.47
2017-12-02T16:52:39.213Z,98068.02
2017-12-02T16:55:06.739Z,98073.83
2017-12-02T16:57:34.282Z,98068.36
2017-12-02T17:00:02.073Z,98057.61
2017-12-02T17:02:29.635Z,98064.28
2017-12-02T17:04:57.154Z,98062.58
2017-12-02T17:07:24.775Z,98067.14
2017-12-02T17:09:52.336Z,98068.06
2017-12-02T17:12:19.898Z,98056.33
2017-12-02T17:14:47.633Z,98062.16
2017-12-02T17:17:15.214Z,98056.97
2017-12-02T17:19:42.725Z,98056.09
2017-12-02T17:22:10.411Z,98056.11
2017-12-02T17:24:37.963Z,98057.22
2017-12-02T17:27:05.548Z,98056.01
2017-12-02T17:29:33.294Z,98059.75
2017-12-02T17:32:00.810Z,98055.70
2017-12-02T17:34:28.351Z,98056.05
2017-12-02T17:36:56.010Z,98061.91
2017-12-02T17:39:23.555Z,98061.61
2017-12-02T17:41:51.112Z,98066.03
2017-12-02T17:44:18.858Z,98065.33
2017-12-02T17:46:46.435Z,98063.05
2017-12-02T17:49:13.995Z,98062.75
2017-12-02T17:51:41.942Z,98066.08
2017-12-02T17:54:09.461Z,98064.48
2017-12-02T17:56:37.036Z,98068.23
2017-12-02T17:59:04.646Z,98074.58
2017-12-02T18:01:32.226Z,98074.16
2017-12-02T18:04:00.016Z,98074.17
2017-12-02T18:06:27.951Z,98081.62
2017-12-02T18:08:55.552Z,98086.94
2017-12-02T18:11:23.150Z,98086.22
2017-12-02T18:13:50.834Z,98088.69
2017-12-02T18:16:18.477Z,98089.44
2017-12-02T18:18:46.105Z,98092.76
2017-12-02T18:21:13.696Z,98087.90
2017-12-02T18:23:41.268Z,98093.68
2017-12-02T18:26:09.651Z,98090.02
2017-12-02T18:28:37.818Z,98093.02
2017-12-02T18:31:05.374Z,98087.55
2017-12-02T18:33:33.131Z,98096.23
2017-12-02T18:36:01.425Z,98105.95
2017-12-02T18:38:29.162Z,98108.53
2017-12-02T18:40:56.877Z,98108.51
2017-12-02T18:43:24.759Z,98105.20
2017-12-02T18:45:52.752Z,98108.04
2017-12-02T18:48:20.319Z,98101.81
2017-12-02T18:50:48.400Z,98110.16
2017-12-02T18:53:18.034Z,98113.91
2017-12-02T18:55:45.570Z,98113.88
2017-12-02T18:58:13.537Z,98111.29
2017-12-02T19:00:41.912Z,98110.53
2017-12-02T19:03:09.614Z,98121.17
2017-12-02T19:05:37.815Z,98121.23
2017-12-02T19:08:05.353Z,98115.47
2017-12-02T19:10:32.910Z,98123.03
2017-12-02T19:13:01.636Z,98126.02
2017-12-02T19:15:29.390Z,98131.33
2017-12-02T19:17:58.306Z,98122.95
2017-12-02T19:20:27.607Z,98116.23
2017-12-02T19:22:55.389Z,98112.11
2017-12-02T19:25:23.647Z,98117.16
2017-12-02T19:27:51.238Z,98121.30
2017-12-02T19:30:18.970Z,98132.52
2017-12-02T19:32:46.765Z,98133.77
2017-12-02T19:35:14.599Z,98126.67
2017-12-02T19:37:43.185Z,98134.03
2017-12-02T19:40:11.743Z,98137.06
2017-12-02T19:42:39.644Z,98141.20
2017-12-02T19:45:07.499Z,98141.61
2017-12-02T19:47:36.084Z,98146.26
2017-12-02T19:50:04.703Z,98141.59
2017-12-02T19:52:34.581Z,98138.59
2017-12-02T19:55:02.196Z,98128.13
2017-12-02T19:57:30.575Z,98123.95
2017-12-02T19:59:58.240Z,98125.45
2017-12-02T20:02:26.273Z,98126.86
2017-12-02T20:04:54.442Z,98125.92
2017-12-02T20:07:22.901Z,98133.16
2017-12-02T20:09:51.488Z,98136.86
2017-12-02T20:12:20.699Z,98135.91
2017-12-02T20:14:48.624Z,98133.99
2017-12-02T20:17:16.517Z,98133.03
2017-12-02T20:19:45.310Z,98132.99
2017-12-02T20:22:13.076Z,98138.84
2017-12-02T20:24:42.121Z,98138.56
2017-12-02T20:27:10.444Z,98139.43
2017-12-02T20:29:38.311Z,98134.77
2017-12-02T20:32:06.028Z,98138.65
2017-12-02T20:34:34.178Z,98135.03
2017-12-02T20:37:01.910Z,98136.84
2017-12-02T20:39:29.572Z,98131.77
2017-12-02T20:41:57.659Z,98140.13
2017-12-02T20:44:25.718Z,98138.07
2017-12-02T20:46:53.589Z,98139.32
2017-12-02T20:49:21.671Z,98127.68
2017-12-02T20:51:49.516Z,98126.44
2017-12-02T20:54:18.370Z,98128.95
2017-12-02T20:56:46.274Z,98127.78
2017-12-02T20:59:14.847Z,98134.48
2017-12-02T21:01:42.638Z,98132.70
2017-12-02T21:04:10.654Z,98133.93
2017-12-02T21:06:38.456Z,98141.44
2017-12-02T21:09:06.300Z,98141.08
2017-12-02T21:11:34.780Z,98139.88
2017-12-02T21:14:02.822Z,98134.70
2017-12-02T21:16:30.639Z,98127.08
2017-12-02T21:18:58.317Z,98127.27
2017-12-02T21:21:26.085Z,98126.40
2017-12-02T21:23:53.930Z,98126.50
2017-12-02T21:26:21.898Z,98127.81
2017-12-02T21:28:49.572Z,98114.00
2017-12-02T21:31:17.307Z,98117.04
2017-12-02T21:33:46.126Z,98124.13
2017-12-02T21:36:14.839Z,98120.22
2017-12-02T21:38:42.460Z,98121.13
2017-12-02T21:41:10.098Z,98121.41
2017-12-02T21:43:37.884Z,98117.23
2017-12-02T21:46:05.653Z,98116.89
2017-12-02T21:48:33.498Z,98117.64
2017-12-02T21:51:01.074Z,98115.02
2017-12-02T21:53:28.838Z,98110.08
2017-12-02T21:55:56.501Z,98108.78
2017-12-02T21:58:24.468Z,98108.02
2017-12-02T22:00:52.027Z,98108.47
2017-12-02T22:03:19.985Z,98110.07
2017-12-02T22:05:47.623Z,98109.73
2017-12-02T22:08:15.320Z,98103.81
2017-12-02T22:10:43.087Z,98107.16
2017-12-02T22:13:10.862Z,98106.86
2017-12-02T22:15:38.620Z,98103.87
2017-12-02T22:18:06.376Z,98103.59
2017-12-02T22:20:34.549Z,98105.30
2017-12-02T22:23:02.117Z,98102.75
2017-12-02T22:25:29.871Z,98110.25
2017-12-02T22:27:57.652Z,98109.11
2017-12-02T22:30:25.502Z,98114.71
2017-12-02T22:32:53.730Z,98116.58
2017-12-02T22:35:21.295Z,98116.00
2017-12-02T22:37:50.227Z,98110.14
2017-12-02T22:40:18.016Z,98116.72
2017-12-02T22:42:45.980Z,98119.83
2017-12-02T22:45:13.929Z,98120.61
2017-12-02T22:47:41.684Z,98121.88
2017-12-02T22:50:09.473Z,98114.36
2017-12-02T22:52:38.664Z,98114.75
2017-12-02T22:55:07.449Z,98109.77
2017-12-02T22:57:36.129Z,98103.58
2017-12-02T23:00:03.718Z,98109.88
2017-12-02T23:02:31.624Z,98105.19
2017-12-02T23:04:59.438Z,98107.66
2017-12-02T23:07:27.734Z,98115.67
2017-12-02T23:09:55.483Z,98114.02
2017-12-02T23:12:23.058Z,98111.47
2017-12-02T23:14:50.592Z,98118.65
2017-12-02T23:17:18.427Z,98121.09
2017-12-02T23:19:46.942Z,98120.34
2017-12-02T23:22:14.572Z,98123.59
2017-12-02T23:24:43.359Z,98113.23
2017-12-02T23:27:11.868Z,98117.24
2017-12-02T23:29:40.446Z,98117.72
2017-12-02T23:32:08.049Z,98117.75
2017-12-02T23:34:35.730Z,98120.62
2017-12-02T23:37:03.343Z,98118.87
2017-12-02T23:39:31.271Z,98118.98
2017-12-02T23:41:58.782Z,98118.16
2017-12-02T23:44:26.333Z,98118.17
2017-12-02T23:46:54.171Z,98119.07
2017-12-02T23:49:21.765Z,98120.30
2017-12-02T23:51:49.301Z,98114.78
2017-12-02T23:54:17.054Z,98112.27
2017-12-02T23:56:44.613Z,98107.67
2017-12-02T23:59:12.194Z,98103.00
